SASO2: Little River At Sasakwa, OK

Data processed at Thu May 23 2019 23:50


All information presented herein is the property of the government of the United States of America and may be revised or deleted at any time without prior notice.
Dissemination of this information without the expressed written consent of the Public Affairs Office, Tulsa District U.S. Army Corps of Engineers is strictly prohibited.
These data are gathered electronically and, as presented, have not undergone any form of quality control. These data are not guaranteed to be valid or correct.
Go to home page.
Go to station list.
Go to home page.

Upstream stations:

Downstream station:
Previous Day
Next Day
Current Day
    
SHEF ID:       SASO2     Little River near Sasakwa, OK
STATION TYPE:  
Regulating: Stage =    26.00, Flow =    14931

                STAGE  RIV-FLOW  BAT-LOAD
                   ft       cfs      volt
              Ccp-Rev   Ccp-Rev   Ccp-Rev
(US/Central)
05/23 00:00      8.96      1644     12.41
05/23 01:00      8.85      1599     12.41
05/23 02:00      8.74      1554     12.41
05/23 03:00      8.63      1507     12.41
05/23 04:00      8.55      1474     12.41
05/23 05:00      8.45      1432     12.41
05/23 06:00      8.37      1399     12.41
05/23 07:00      8.29      1366     12.41
05/23 08:00      8.20      1330     12.41
05/23 09:00      8.11      1294     12.41
05/23 10:00      8.03      1263     12.57
05/23 11:00      7.97      1240     12.89
05/23 12:00      7.88      1205     12.97
05/23 13:00      7.80      1175     13.68
05/23 14:00      7.72      1145     13.84
05/23 15:00      7.65      1119     13.53
05/23 16:00      7.58      1094     13.68
05/23 17:00      7.50      1065     13.68
05/23 18:00      7.43      1040     13.29
05/23 19:00      7.34      1008     13.29
05/23 20:00      7.29       991     12.97
05/23 21:00      7.23       970     12.57
05/23 22:00      7.17       949     12.41
05/23 23:00      7.10       926     12.41